Historique des mesures à Cassis (13260), France
Quotidien Résumé Juillet 27, 2017 Unités:  Métrique    US   Métrique/US
« Précédent (Jour)
Suivant (Jour) »
Quotidien Hebdomadaire Mensuel Annuel Période au choix
  Maximum: Minimum: Moyenne:
Température: TemperatureC °C 21.8 °C 24.2 °C
Point de rosée: DewpointC °C 9.6 °C 12.9 °C
Humidité: Humidity % 40 % 47 %
Vitesse du vent: 0 km/h 0 km/h 19 km/h
Rafales: 0 km/h - -
Vent:- - South
Pression: PressurehPa hPa 1004.6 hPa -
Précipitations: 0.0 mm    
Historical Graphs
 
 
Mesures pour : Juillet 27, 2017
Heure Temperature Point de rosée Pression Vent Vitesse du vent Rafales Humidité Pluie (par heure) Conditions
TemperatureC °C DewpointC °C PressurehPa hPa Calm     Humidity % HourlyPrecipMM mm SoftwareType W/m2
00:11 24.4 °C 10.7 °C 1004.6 hPa NNE 49.2 km/h 49.2 km/h 42 % 0.0 mm open2300-1.11 W/m2
01:11 24.1 °C 10.0 °C 1004.6 hPa NNE 27.7 km/h 33.6 km/h 41 % 0.0 mm open2300-1.11 W/m2
02:11 24.0 °C 9.6 °C 1005.3 hPa NNE 8.9 km/h 24.8 km/h 40 % 0.0 mm open2300-1.11 W/m2
03:11 23.4 °C 10.7 °C 1005.3 hPa NW 49.2 km/h 49.2 km/h 45 % 0.0 mm open2300-1.11 W/m2
04:11 23.1 °C 10.4 °C 1005.6 hPa NE 9.8 km/h 9.8 km/h 45 % 0.0 mm open2300-1.11 W/m2
05:11 22.6 °C 10.7 °C 1006.0 hPa North 4.7 km/h 12.2 km/h 47 % 0.0 mm open2300-1.11 W/m2
06:11 21.9 °C 11.0 °C 1006.7 hPa NW 11.6 km/h 13.2 km/h 50 % 0.0 mm open2300-1.11 W/m2
07:11 21.8 °C 11.2 °C 1006.7 hPa NNE 4.7 km/h 6.9 km/h 51 % 0.0 mm open2300-1.11 W/m2
08:11 22.6 °C 11.7 °C 1007.3 hPa North 2.3 km/h 6.4 km/h 50 % 0.0 mm open2300-1.11 W/m2
09:11 23.8 °C 12.1 °C 1007.7 hPa North 7.6 km/h 7.6 km/h 48 % 0.0 mm open2300-1.11 W/m2
10:11 25.1 °C 12.9 °C 1007.7 hPa North 8 km/h 15 km/h 47 % 0.0 mm open2300-1.11 W/m2
11:11 26.7 °C 14.1 °C 1007.7 hPa NNE 11.6 km/h 23 km/h 46 % 0.0 mm open2300-1.11 W/m2
12:11 28.0 °C 14.6 °C 1007.3 hPa NNW 14 km/h 14 km/h 44 % 0.0 mm open2300-1.11 W/m2
13:11 27.6 °C 15.9 °C 1007.7 hPa NNW 31.4 km/h 50.5 km/h 49 % 0.0 mm open2300-1.11 W/m2
14:11 27.8 °C 16.1 °C 1007.3 hPa NW 34.1 km/h 50.5 km/h 49 % 0.0 mm open2300-1.11 W/m2
15:11 28.1 °C 16.0 °C 1006.7 hPa WNW 28.5 km/h 56.6 km/h 48 % 0.0 mm open2300-1.11 W/m2
16:11 27.8 °C 15.7 °C 1007.0 hPa ENE 4.2 km/h 7.6 km/h 48 % 0.0 mm open2300-1.11 W/m2
17:11 27.9 °C 13.8 °C 1007.0 hPa NW 53.9 km/h 53.9 km/h 42 % 0.0 mm open2300-1.11 W/m2
18:11 27.6 °C 14.9 °C 1006.7 hPa West 13.2 km/h 57.9 km/h 46 % 0.0 mm open2300-1.11 W/m2
19:11 26.8 °C 15.8 °C 1006.7 hPa NW 38.8 km/h 58.6 km/h 51 % 0.0 mm open2300-1.11 W/m2
20:11 26.1 °C 15.4 °C 1006.7 hPa WNW 46.8 km/h 59.1 km/h 52 % 0.0 mm open2300-1.11 W/m2
21:11 25.2 °C 15.5 °C 1007.3 hPa NNW 4.2 km/h 22 km/h 55 % 0.0 mm open2300-1.11 W/m2
22:11 24.5 °C 16.0 °C 1008.0 hPa Calm   19.6 km/h 59 % 0.0 mm open2300-1.11 W/m2
23:11 23.9 °C 17.4 °C 1008.0 hPa NNW 9.3 km/h 15.6 km/h 67 % 0.0 mm open2300-1.11 W/m2
Observations météo à CASSIS
WU-History script by Weather Underground - 1 mb